Time;durP1;ratioP1;P1;durP2;ratioP2;P2;SDS_P1;SDS_P2;PMS_P1;PMS_P2;Temp;Humidity;BMP_temperature;BMP_pressure;BME280_temperature;BME280_humidity;BME280_pressure;Samples;Min_cycle;Max_cycle;Signal;HPM_P1;HPM_P2
2022/06/30 00:00:30;;;;;;;;;;;;;;;;;;5074360;28;19970;-69
2022/06/30 00:02:56;;;;;;;;;;;;;;;;;;5074771;28;20435;-69
2022/06/30 00:05:22;;;;;;;;;;;;;;;;;;5074668;28;19924;-69
2022/06/30 00:07:48;;;;;;;;;;;;;;;;;;5072368;28;19924;-69
2022/06/30 00:10:14;;;;;;;;;;;;;;;;;;5074478;28;19956;-69
2022/06/30 00:12:40;;;;;;;;;;;;;;;;;;5073249;28;20425;-69
2022/06/30 00:15:06;;;;;;;;;;;;;;;;;;5073782;28;19952;-69
2022/06/30 00:17:32;;;;;;;;;;;;;;;;;;5074308;28;19997;-69
2022/06/30 00:19:58;;;;;;;;;;;;;;;;;;5074359;28;20007;-69
2022/06/30 00:22:25;;;;;;;;;;;;;;;;;;5073349;28;19944;-69
2022/06/30 00:24:51;;;;;;;;;;;;;;;;;;5073898;28;19920;-69
2022/06/30 00:27:17;;;;;;;;;;;;;;;;;;5092306;28;19920;-69
2022/06/30 00:29:43;;;;;;;;;;;;;;;;;;5093734;28;19942;-69
2022/06/30 00:32:08;;;;;;;;;;;;;;;;;;5094296;28;19924;-69
2022/06/30 00:34:34;;;;;;;;;;;;;;;;;;5093982;28;20400;-69
2022/06/30 00:37:01;;;;;;;;;;;;;;;;;;5093457;28;19920;-69
2022/06/30 00:39:26;;;;;;;;;;;;;;;;;;5094130;28;19925;-69
2022/06/30 00:41:52;;;;;;;;;;;;;;;;;;5093882;28;20081;-69
2022/06/30 00:44:18;;;;;;;;;;;;;;;;;;5093140;28;19928;-69
2022/06/30 00:46:44;;;;;;;;;;;;;;;;;;5094056;28;19943;-69
2022/06/30 00:49:10;;;;;;;;;;;;;;;;;;5093972;28;20003;-69
2022/06/30 00:51:36;;;;;;;;;;;;;;;;;;5093227;28;19977;-69
2022/06/30 00:54:02;;;;;;;;;;;;;;;;;;5093959;28;19920;-69
2022/06/30 00:56:28;;;;;;;;;;;;;;;;;;5093903;28;19946;-69
2022/06/30 00:58:54;;;;;;;;;;;;;;;;;;5093083;28;19924;-69
2022/06/30 01:01:20;;;;;;;;;;;;;;;;;;5093646;28;19931;-69
2022/06/30 01:03:46;;;;;;;;;;;;;;;;;;5093429;28;20015;-69
2022/06/30 01:06:12;;;;;;;;;;;;;;;;;;5093011;28;19994;-69
2022/06/30 01:08:38;;;;;;;;;;;;;;;;;;5093639;28;19924;-69
2022/06/30 01:13:49;;;;;;;;;;;;;;;;;;5092800;28;20290;-69
2022/06/30 01:16:15;;;;;;;;;;;;;;;;;;5093580;28;19920;-69
2022/06/30 01:18:41;;;;;;;;;;;;;;;;;;5093393;28;19928;-69
2022/06/30 01:21:07;;;;;;;;;;;;;;;;;;5092749;28;19924;-69
2022/06/30 01:23:32;;;;;;;;;;;;;;;;;;5093363;28;20043;-69
2022/06/30 01:25:58;;;;;;;;;;;;;;;;;;5086090;28;19931;-69
2022/06/30 01:28:24;;;;;;;;;;;;;;;;;;5072374;28;19921;-69
2022/06/30 01:30:50;;;;;;;;;;;;;;;;;;5072878;28;19943;-69
2022/06/30 01:33:16;;;;;;;;;;;;;;;;;;5072966;28;19920;-69
2022/06/30 01:35:42;;;;;;;;;;;;;;;;;;5072209;28;19955;-69
2022/06/30 01:38:08;;;;;;;;;;;;;;;;;;5072860;28;19928;-69
2022/06/30 01:40:35;;;;;;;;;;;;;;;;;;5072332;28;19946;-69
2022/06/30 01:43:01;;;;;;;;;;;;;;;;;;5070298;28;20321;-69
2022/06/30 01:45:26;;;;;;;;;;;;;;;;;;5072199;28;19970;-69
2022/06/30 01:47:52;;;;;;;;;;;;;;;;;;5072425;28;19974;-69
2022/06/30 01:50:18;;;;;;;;;;;;;;;;;;5071652;28;19924;-69
2022/06/30 01:52:44;;;;;;;;;;;;;;;;;;5072560;28;20007;-69
2022/06/30 01:55:10;;;;;;;;;;;;;;;;;;5072417;28;20249;-69
2022/06/30 01:57:36;;;;;;;;;;;;;;;;;;5071790;28;19920;-68
2022/06/30 02:00:02;;;;;;;;;;;;;;;;;;5072120;28;20007;-68
2022/06/30 02:02:28;;;;;;;;;;;;;;;;;;5072381;28;19971;-68
2022/06/30 02:04:54;;;;;;;;;;;;;;;;;;5071782;28;19927;-68
2022/06/30 02:07:20;;;;;;;;;;;;;;;;;;5072173;28;19920;-68
2022/06/30 02:09:46;;;;;;;;;;;;;;;;;;5072196;28;19925;-68
2022/06/30 02:14:57;;;;;;;;;;;;;;;;;;5072432;28;20287;-68
2022/06/30 02:17:23;;;;;;;;;;;;;;;;;;5072262;28;19927;-68
2022/06/30 02:19:49;;;;;;;;;;;;;;;;;;5071483;28;19951;-68
2022/06/30 02:22:15;;;;;;;;;;;;;;;;;;5071875;28;19924;-68
2022/06/30 02:24:40;;;;;;;;;;;;;;;;;;5072156;28;19921;-68
2022/06/30 02:27:06;;;;;;;;;;;;;;;;;;5087622;28;19927;-68
2022/06/30 02:29:33;;;;;;;;;;;;;;;;;;5092241;28;19924;-68
2022/06/30 02:31:59;;;;;;;;;;;;;;;;;;5092154;28;19924;-68
2022/06/30 02:34:25;;;;;;;;;;;;;;;;;;5091559;28;19924;-68
2022/06/30 02:36:50;;;;;;;;;;;;;;;;;;5091938;28;19979;-68
2022/06/30 02:39:16;;;;;;;;;;;;;;;;;;5091981;28;19937;-68
2022/06/30 02:41:42;;;;;;;;;;;;;;;;;;5089983;28;19983;-68
2022/06/30 02:44:08;;;;;;;;;;;;;;;;;;5091752;28;19928;-68
2022/06/30 02:46:34;;;;;;;;;;;;;;;;;;5092240;28;19920;-68
2022/06/30 02:49:00;;;;;;;;;;;;;;;;;;5091353;28;19970;-68
2022/06/30 02:51:26;;;;;;;;;;;;;;;;;;5092076;28;19985;-68
2022/06/30 02:53:52;;;;;;;;;;;;;;;;;;5092148;28;19928;-68
2022/06/30 02:56:18;;;;;;;;;;;;;;;;;;5091406;28;19924;-68
2022/06/30 02:58:44;;;;;;;;;;;;;;;;;;5095682;28;19928;-68
2022/06/30 03:01:10;;;;;;;;;;;;;;;;;;5095867;28;19943;-68
2022/06/30 03:03:36;;;;;;;;;;;;;;;;;;5095493;28;19956;-68
2022/06/30 03:06:02;;;;;;;;;;;;;;;;;;5096211;28;20539;-68
2022/06/30 03:08:28;;;;;;;;;;;;;;;;;;5095914;28;20018;-68
2022/06/30 03:10:54;;;;;;;;;;;;;;;;;;5095192;28;20006;-68
2022/06/30 03:13:20;;;;;;;;;;;;;;;;;;5095847;28;19959;-68
2022/06/30 03:15:47;;;;;;;;;;;;;;;;;;5095793;28;20278;-68
2022/06/30 03:18:13;;;;;;;;;;;;;;;;;;5094814;28;19928;-68
2022/06/30 03:20:39;;;;;;;;;;;;;;;;;;5095737;28;19943;-68
2022/06/30 03:23:05;;;;;;;;;;;;;;;;;;5095884;28;19920;-68
2022/06/30 03:25:30;;;;;;;;;;;;;;;;;;5091719;28;19975;-68
2022/06/30 03:27:57;;;;;;;;;;;;;;;;;;5075222;28;19921;-68
2022/06/30 03:30:23;;;;;;;;;;;;;;;;;;5073688;28;19920;-68
2022/06/30 03:32:49;;;;;;;;;;;;;;;;;;5074657;28;19920;-68
2022/06/30 03:35:15;;;;;;;;;;;;;;;;;;5075323;28;19920;-68
2022/06/30 03:37:41;;;;;;;;;;;;;;;;;;5074727;28;19920;-68
2022/06/30 03:40:06;;;;;;;;;;;;;;;;;;5073288;28;20347;-68
2022/06/30 03:42:32;;;;;;;;;;;;;;;;;;5074585;28;20457;-68
2022/06/30 03:44:58;;;;;;;;;;;;;;;;;;5075014;28;19951;-68
2022/06/30 03:47:24;;;;;;;;;;;;;;;;;;5074991;28;19927;-68
2022/06/30 03:49:50;;;;;;;;;;;;;;;;;;5074283;28;19920;-68
2022/06/30 03:52:16;;;;;;;;;;;;;;;;;;5074585;28;19921;-68
2022/06/30 03:54:42;;;;;;;;;;;;;;;;;;5074841;28;20011;-68
2022/06/30 03:57:08;;;;;;;;;;;;;;;;;;5074244;28;19924;-68
2022/06/30 03:59:35;;;;;;;;;;;;;;;;;;5074703;28;19924;-68
2022/06/30 04:02:01;;;;;;;;;;;;;;;;;;5074354;28;19956;-68
2022/06/30 04:04:27;;;;;;;;;;;;;;;;;;5074142;28;19966;-68
2022/06/30 04:06:53;;;;;;;;;;;;;;;;;;5074529;28;19924;-68
2022/06/30 04:09:19;;;;;;;;;;;;;;;;;;5073967;28;20027;-68
2022/06/30 04:11:44;;;;;;;;;;;;;;;;;;5073916;28;20279;-68
2022/06/30 04:14:10;;;;;;;;;;;;;;;;;;5074467;28;20303;-68
2022/06/30 04:16:36;;;;;;;;;;;;;;;;;;5074510;28;19995;-68
2022/06/30 04:19:02;;;;;;;;;;;;;;;;;;5073649;28;19951;-68
2022/06/30 04:21:28;;;;;;;;;;;;;;;;;;5074277;28;20002;-68
2022/06/30 04:23:54;;;;;;;;;;;;;;;;;;5074450;28;19974;-68
2022/06/30 04:26:20;;;;;;;;;;;;;;;;;;5083756;28;19924;-68
2022/06/30 04:28:46;;;;;;;;;;;;;;;;;;5094070;28;19943;-68
2022/06/30 04:33:57;;;;;;;;;;;;;;;;;;5093806;28;20379;-68
2022/06/30 04:36:23;;;;;;;;;;;;;;;;;;5093022;28;20012;-68
2022/06/30 04:38:48;;;;;;;;;;;;;;;;;;5094083;28;19928;-68
2022/06/30 04:41:24;;;;;;;;;;;;;;;;;;5093493;28;19927;-68
2022/06/30 04:43:50;;;;;;;;;;;;;;;;;;5093842;28;19924;-68
2022/06/30 04:46:16;;;;;;;;;;;;;;;;;;5094126;28;19927;-68
2022/06/30 04:48:42;;;;;;;;;;;;;;;;;;5093140;28;19927;-69
2022/06/30 04:51:08;;;;;;;;;;;;;;;;;;5093936;28;19924;-69
2022/06/30 04:53:34;;;;;;;;;;;;;;;;;;5093981;28;19920;-68
2022/06/30 04:56:00;;;;;;;;;;;;;;;;;;5093355;28;20035;-68
2022/06/30 04:58:26;;;;;;;;;;;;;;;;;;5093836;28;19924;-68
2022/06/30 05:00:52;;;;;;;;;;;;;;;;;;5093440;28;19924;-68
2022/06/30 05:03:18;;;;;;;;;;;;;;;;;;5093030;28;20571;-68
2022/06/30 05:05:44;;;;;;;;;;;;;;;;;;5093394;28;19989;-68
2022/06/30 05:08:10;;;;;;;;;;;;;;;;;;5091646;28;19931;-68
2022/06/30 05:10:36;;;;;;;;;;;;;;;;;;5091852;28;20011;-68
2022/06/30 05:13:02;;;;;;;;;;;;;;;;;;5093405;28;19924;-68
2022/06/30 05:15:28;;;;;;;;;;;;;;;;;;5093403;28;19943;-68
2022/06/30 05:17:54;;;;;;;;;;;;;;;;;;5092174;28;19974;-68
2022/06/30 05:20:20;;;;;;;;;;;;;;;;;;5091133;28;19927;-68
2022/06/30 05:22:46;;;;;;;;;;;;;;;;;;5092862;28;20007;-68
2022/06/30 05:27:57;;;;;;;;;;;;;;;;;;5093122;28;20290;-68
2022/06/30 05:30:23;;;;;;;;;;;;;;;;;;5093133;28;19926;-68
2022/06/30 05:32:49;;;;;;;;;;;;;;;;;;5092456;28;20297;-68
2022/06/30 05:35:15;;;;;;;;;;;;;;;;;;5092125;28;19969;-68
2022/06/30 05:37:41;;;;;;;;;;;;;;;;;;5093112;28;19927;-68
2022/06/30 05:40:07;;;;;;;;;;;;;;;;;;5092194;28;19928;-68
2022/06/30 05:42:33;;;;;;;;;;;;;;;;;;5092739;28;19924;-68
2022/06/30 05:44:59;;;;;;;;;;;;;;;;;;5092817;28;19924;-68
2022/06/30 05:47:24;;;;;;;;;;;;;;;;;;5092249;28;20375;-68
2022/06/30 05:49:50;;;;;;;;;;;;;;;;;;5092551;28;19924;-68
2022/06/30 05:52:16;;;;;;;;;;;;;;;;;;5092502;28;20010;-68
2022/06/30 05:54:42;;;;;;;;;;;;;;;;;;5092260;28;19931;-68
2022/06/30 05:57:08;;;;;;;;;;;;;;;;;;5092755;28;19924;-68
2022/06/30 05:59:34;;;;;;;;;;;;;;;;;;5092140;28;19959;-68
2022/06/30 06:02:00;;;;;;;;;;;;;;;;;;5091660;28;20005;-68
2022/06/30 06:04:26;;;;;;;;;;;;;;;;;;5092564;28;20374;-68
2022/06/30 06:06:52;;;;;;;;;;;;;;;;;;5092615;28;19928;-68
2022/06/30 06:09:18;;;;;;;;;;;;;;;;;;5091586;28;20033;-68
2022/06/30 06:11:44;;;;;;;;;;;;;;;;;;5091845;28;19931;-68
2022/06/30 06:14:10;;;;;;;;;;;;;;;;;;5091951;28;19920;-68
2022/06/30 06:16:36;;;;;;;;;;;;;;;;;;5091800;28;19920;-68
2022/06/30 06:19:02;;;;;;;;;;;;;;;;;;5091833;28;20354;-68
2022/06/30 06:21:28;;;;;;;;;;;;;;;;;;5092257;28;20442;-68
2022/06/30 06:23:54;;;;;;;;;;;;;;;;;;5091490;28;19920;-68
2022/06/30 06:26:20;;;;;;;;;;;;;;;;;;5092226;28;19931;-68
2022/06/30 06:31:30;;;;;;;;;;;;;;;;;;5091202;28;20266;-68
2022/06/30 06:33:56;;;;;;;;;;;;;;;;;;5090735;28;19920;-70
2022/06/30 06:36:22;;;;;;;;;;;;;;;;;;5092205;28;19977;-68
2022/06/30 06:38:48;;;;;;;;;;;;;;;;;;5090960;28;20263;-69
2022/06/30 06:41:15;;;;;;;;;;;;;;;;;;5091533;28;19981;-68
2022/06/30 06:43:41;;;;;;;;;;;;;;;;;;5089965;28;20282;-69
2022/06/30 06:46:07;;;;;;;;;;;;;;;;;;5091081;28;19921;-68
2022/06/30 06:48:33;;;;;;;;;;;;;;;;;;5090219;28;19981;-68
2022/06/30 06:50:59;;;;;;;;;;;;;;;;;;5090162;28;19947;-68
2022/06/30 06:53:25;;;;;;;;;;;;;;;;;;5091082;28;19970;-68
2022/06/30 06:55:51;;;;;;;;;;;;;;;;;;5091486;28;20295;-69
2022/06/30 06:58:16;;;;;;;;;;;;;;;;;;5089657;28;19947;-69
2022/06/30 07:00:42;;;;;;;;;;;;;;;;;;5089696;28;19986;-69
2022/06/30 07:03:08;;;;;;;;;;;;;;;;;;5107836;28;20003;-69
2022/06/30 07:05:34;;;;;;;;;;;;;;;;;;5107274;28;19920;-69
2022/06/30 07:08:00;;;;;;;;;;;;;;;;;;5090902;28;19961;-69
2022/06/30 07:10:26;;;;;;;;;;;;;;;;;;5090651;28;20290;-68
2022/06/30 07:12:53;;;;;;;;;;;;;;;;;;5089749;28;19989;-69
2022/06/30 07:15:20;;;;;;;;;;;;;;;;;;5087508;28;19928;-68
2022/06/30 07:17:46;;;;;;;;;;;;;;;;;;5091044;28;19985;-67
2022/06/30 07:20:12;;;;;;;;;;;;;;;;;;5091202;28;19975;-70
2022/06/30 07:22:38;;;;;;;;;;;;;;;;;;5089226;28;20306;-68
2022/06/30 07:25:05;;;;;;;;;;;;;;;;;;5090827;28;19920;-68
2022/06/30 07:27:31;;;;;;;;;;;;;;;;;;5096453;28;20010;-68
2022/06/30 07:29:57;;;;;;;;;;;;;;;;;;5104009;28;20006;-70
2022/06/30 07:32:23;;;;;;;;;;;;;;;;;;5090734;28;19958;-70
2022/06/30 07:34:49;;;;;;;;;;;;;;;;;;5091511;28;19947;-69
2022/06/30 07:37:16;;;;;;;;;;;;;;;;;;5090546;28;19924;-69
2022/06/30 07:39:42;;;;;;;;;;;;;;;;;;5097215;28;19935;-69
2022/06/30 07:42:07;;;;;;;;;;;;;;;;;;5089470;28;19920;-69
2022/06/30 07:44:33;;;;;;;;;;;;;;;;;;5091345;28;19924;-69
2022/06/30 07:46:59;;;;;;;;;;;;;;;;;;5093706;28;19927;-68
2022/06/30 07:49:25;;;;;;;;;;;;;;;;;;5092874;28;19926;-68
2022/06/30 07:51:53;;;;;;;;;;;;;;;;;;5092288;28;19920;-67
2022/06/30 07:54:19;;;;;;;;;;;;;;;;;;5093255;28;19963;-68
2022/06/30 07:56:45;;;;;;;;;;;;;;;;;;5094768;28;20398;-67
2022/06/30 07:59:11;;;;;;;;;;;;;;;;;;5093373;28;19928;-70
2022/06/30 08:01:36;;;;;;;;;;;;;;;;;;5092241;28;19924;-69
2022/06/30 08:04:02;;;;;;;;;;;;;;;;;;5092710;28;19947;-68
2022/06/30 08:06:28;;;;;;;;;;;;;;;;;;5093284;28;19924;-68
2022/06/30 08:08:54;;;;;;;;;;;;;;;;;;5091931;28;19947;-69
2022/06/30 08:11:20;;;;;;;;;;;;;;;;;;5075825;28;21366;-67
2022/06/30 08:13:47;;;;;;;;;;;;;;;;;;5094315;28;19920;-68
2022/06/30 08:16:13;;;;;;;;;;;;;;;;;;5091395;28;19920;-70
2022/06/30 08:18:39;;;;;;;;;;;;;;;;;;5075772;28;20377;-70
2022/06/30 08:21:06;;;;;;;;;;;;;;;;;;5092207;28;20304;-69
2022/06/30 08:23:32;;;;;;;;;;;;;;;;;;5091305;28;19968;-69
2022/06/30 08:25:58;;;;;;;;;;;;;;;;;;5092432;28;19963;-70
2022/06/30 08:28:24;;;;;;;;;;;;;;;;;;5092399;28;19920;-69
2022/06/30 08:30:50;;;;;;;;;;;;;;;;;;5091343;28;19943;-71
2022/06/30 08:33:16;;;;;;;;;;;;;;;;;;5091558;28;19924;-69
2022/06/30 08:35:43;;;;;;;;;;;;;;;;;;5075092;28;19920;-67
2022/06/30 08:38:09;;;;;;;;;;;;;;;;;;5091115;28;19928;-67
2022/06/30 08:43:19;;;;;;;;;;;;;;;;;;5091820;28;20339;-68
2022/06/30 08:45:45;;;;;;;;;;;;;;;;;;5092786;28;19986;-67
2022/06/30 08:48:11;;;;;;;;;;;;;;;;;;5103539;28;19920;-67
2022/06/30 08:50:37;;;;;;;;;;;;;;;;;;5092323;28;19920;-70
2022/06/30 08:53:03;;;;;;;;;;;;;;;;;;5072648;28;19920;-71
2022/06/30 08:55:30;;;;;;;;;;;;;;;;;;5089835;28;19989;-70
2022/06/30 08:57:56;;;;;;;;;;;;;;;;;;5095766;28;19920;-70
2022/06/30 09:00:21;;;;;;;;;;;;;;;;;;5100985;28;19924;-68
2022/06/30 09:02:47;;;;;;;;;;;;;;;;;;5092819;28;19968;-69
2022/06/30 09:05:14;;;;;;;;;;;;;;;;;;5073470;28;19974;-70
2022/06/30 09:07:40;;;;;;;;;;;;;;;;;;5090231;28;20011;-70
2022/06/30 09:10:06;;;;;;;;;;;;;;;;;;5090820;28;19927;-70
2022/06/30 09:12:32;;;;;;;;;;;;;;;;;;5092627;28;19924;-69
2022/06/30 09:14:59;;;;;;;;;;;;;;;;;;5090656;28;20111;-67
2022/06/30 09:17:25;;;;;;;;;;;;;;;;;;5092578;28;19920;-69
2022/06/30 09:19:51;;;;;;;;;;;;;;;;;;5085598;28;19950;-69
2022/06/30 09:22:17;;;;;;;;;;;;;;;;;;5096467;28;19930;-70
2022/06/30 09:24:43;;;;;;;;;;;;;;;;;;5089252;28;20406;-67
2022/06/30 09:27:10;;;;;;;;;;;;;;;;;;5094822;28;19996;-67
2022/06/30 09:29:36;;;;;;;;;;;;;;;;;;5090413;28;19924;-68
2022/06/30 09:32:03;;;;;;;;;;;;;;;;;;5089812;28;19974;-70
2022/06/30 09:34:29;;;;;;;;;;;;;;;;;;5097763;28;19987;-69
2022/06/30 09:36:55;;;;;;;;;;;;;;;;;;5089491;28;20005;-70
2022/06/30 09:39:21;;;;;;;;;;;;;;;;;;5090021;28;20020;-70
2022/06/30 09:41:47;;;;;;;;;;;;;;;;;;5089345;28;19920;-68
2022/06/30 09:44:13;;;;;;;;;;;;;;;;;;5090913;28;19955;-67
2022/06/30 09:46:40;;;;;;;;;;;;;;;;;;5091267;28;20019;-69
2022/06/30 09:49:06;;;;;;;;;;;;;;;;;;5091301;28;19927;-69
2022/06/30 09:51:32;;;;;;;;;;;;;;;;;;5089316;28;19919;-69
2022/06/30 09:53:58;;;;;;;;;;;;;;;;;;5098516;28;19919;-68
2022/06/30 09:56:24;;;;;;;;;;;;;;;;;;5089866;28;19923;-69
2022/06/30 09:58:50;;;;;;;;;;;;;;;;;;5088652;28;19931;-69
2022/06/30 10:01:16;;;;;;;;;;;;;;;;;;5088880;28;19924;-69
2022/06/30 10:03:42;;;;;;;;;;;;;;;;;;5089954;28;19988;-69
2022/06/30 10:06:08;;;;;;;;;;;;;;;;;;5093248;28;19967;-67
2022/06/30 10:08:34;;;;;;;;;;;;;;;;;;5091045;28;19955;-68
2022/06/30 10:11:00;;;;;;;;;;;;;;;;;;5090642;28;20011;-68
2022/06/30 10:13:26;;;;;;;;;;;;;;;;;;5093091;28;19991;-67
2022/06/30 10:15:54;;;;;;;;;;;;;;;;;;5089787;28;19950;-68
2022/06/30 10:18:19;;;;;;;;;;;;;;;;;;5092883;28;20012;-67
2022/06/30 10:20:45;;;;;;;;;;;;;;;;;;5090828;28;20003;-68
2022/06/30 10:23:13;;;;;;;;;;;;;;;;;;5073454;28;19963;-69
2022/06/30 10:25:39;;;;;;;;;;;;;;;;;;5090943;28;19931;-69
2022/06/30 10:28:05;;;;;;;;;;;;;;;;;;5090498;28;19920;-70
2022/06/30 10:30:31;;;;;;;;;;;;;;;;;;5093893;28;19943;-69
2022/06/30 10:32:57;;;;;;;;;;;;;;;;;;5090271;28;19920;-68
2022/06/30 10:35:23;;;;;;;;;;;;;;;;;;5089855;28;19962;-68
2022/06/30 10:37:49;;;;;;;;;;;;;;;;;;5090306;28;19946;-68
2022/06/30 10:40:15;;;;;;;;;;;;;;;;;;5091220;28;19924;-68
2022/06/30 10:42:41;;;;;;;;;;;;;;;;;;5092091;28;20007;-68
2022/06/30 10:45:07;;;;;;;;;;;;;;;;;;5089464;28;19955;-68
2022/06/30 10:47:33;;;;;;;;;;;;;;;;;;5072895;28;19947;-70
2022/06/30 10:49:59;;;;;;;;;;;;;;;;;;5090817;28;19924;-68
2022/06/30 10:52:25;;;;;;;;;;;;;;;;;;5092465;28;20339;-68
2022/06/30 10:54:51;;;;;;;;;;;;;;;;;;5096302;28;19927;-68
2022/06/30 10:57:19;;;;;;;;;;;;;;;;;;5090861;28;20370;-70
2022/06/30 10:59:45;;;;;;;;;;;;;;;;;;5065731;28;20301;-69
2022/06/30 11:02:11;;;;;;;;;;;;;;;;;;5087476;28;19931;-69
2022/06/30 11:04:37;;;;;;;;;;;;;;;;;;5082614;28;20559;-69
2022/06/30 11:07:03;;;;;;;;;;;;;;;;;;5087381;28;19963;-71
2022/06/30 11:09:29;;;;;;;;;;;;;;;;;;5082514;28;19992;-71
2022/06/30 11:11:55;;;;;;;;;;;;;;;;;;5093003;28;19986;-70
2022/06/30 11:14:21;;;;;;;;;;;;;;;;;;5090231;28;19920;-70
2022/06/30 11:16:49;;;;;;;;;;;;;;;;;;5091404;28;20274;-68
2022/06/30 11:19:15;;;;;;;;;;;;;;;;;;5094165;28;19953;-70
2022/06/30 11:21:41;;;;;;;;;;;;;;;;;;5094196;28;19924;-71
2022/06/30 11:24:08;;;;;;;;;;;;;;;;;;5095377;28;19924;-70
2022/06/30 11:29:18;;;;;;;;;;;;;;;;;;5093065;28;20439;-68
2022/06/30 11:31:44;;;;;;;;;;;;;;;;;;5109332;28;19959;-72
2022/06/30 11:34:10;;;;;;;;;;;;;;;;;;5108330;28;19924;-69
2022/06/30 11:36:36;;;;;;;;;;;;;;;;;;5095083;28;19920;-70
2022/06/30 11:39:02;;;;;;;;;;;;;;;;;;5104180;28;19931;-69
2022/06/30 11:44:13;;;;;;;;;;;;;;;;;;5094549;28;20339;-67
2022/06/30 11:46:39;;;;;;;;;;;;;;;;;;5093775;28;20019;-69
2022/06/30 11:49:05;;;;;;;;;;;;;;;;;;5094152;28;19920;-70
2022/06/30 11:51:31;;;;;;;;;;;;;;;;;;5097084;28;20035;-70
2022/06/30 11:53:57;;;;;;;;;;;;;;;;;;5094500;28;19927;-70
2022/06/30 11:56:23;;;;;;;;;;;;;;;;;;5094516;28;19920;-71
2022/06/30 11:58:48;;;;;;;;;;;;;;;;;;5092830;28;19950;-69
2022/06/30 12:01:14;;;;;;;;;;;;;;;;;;5094487;28;19951;-69
2022/06/30 12:03:43;;;;;;;;;;;;;;;;;;5093197;28;19924;-69
2022/06/30 12:06:10;;;;;;;;;;;;;;;;;;5096691;28;20371;-69
2022/06/30 12:08:36;;;;;;;;;;;;;;;;;;5094206;28;19977;-69
2022/06/30 12:11:02;;;;;;;;;;;;;;;;;;5097850;28;19927;-69
2022/06/30 12:13:29;;;;;;;;;;;;;;;;;;5094937;28;19924;-69
2022/06/30 12:15:56;;;;;;;;;;;;;;;;;;5094576;28;19925;-68
2022/06/30 12:18:22;;;;;;;;;;;;;;;;;;5093787;28;19931;-69
2022/06/30 12:20:47;;;;;;;;;;;;;;;;;;5094837;28;19921;-68
2022/06/30 12:23:13;;;;;;;;;;;;;;;;;;5096786;28;20042;-69
2022/06/30 12:25:39;;;;;;;;;;;;;;;;;;5093039;28;19973;-68
2022/06/30 12:28:05;;;;;;;;;;;;;;;;;;5093314;28;19920;-69
2022/06/30 12:30:31;;;;;;;;;;;;;;;;;;5092776;28;19924;-69
2022/06/30 12:32:58;;;;;;;;;;;;;;;;;;5093655;28;19927;-71
2022/06/30 12:35:24;;;;;;;;;;;;;;;;;;5091587;28;19924;-69
2022/06/30 12:37:51;;;;;;;;;;;;;;;;;;5091755;28;20704;-71
2022/06/30 12:40:17;;;;;;;;;;;;;;;;;;5093330;28;19955;-71
2022/06/30 12:42:43;;;;;;;;;;;;;;;;;;5095099;28;20339;-70
2022/06/30 12:45:09;;;;;;;;;;;;;;;;;;5091986;28;19946;-70
2022/06/30 12:47:37;;;;;;;;;;;;;;;;;;5092663;28;19920;-70
2022/06/30 12:50:03;;;;;;;;;;;;;;;;;;5091650;28;20001;-70
2022/06/30 12:52:30;;;;;;;;;;;;;;;;;;5111859;28;19920;-72
2022/06/30 12:54:56;;;;;;;;;;;;;;;;;;5099297;28;19931;-70
2022/06/30 12:57:22;;;;;;;;;;;;;;;;;;5093321;28;19946;-74
2022/06/30 12:59:48;;;;;;;;;;;;;;;;;;5095498;28;20007;-72
2022/06/30 13:02:17;;;;;;;;;;;;;;;;;;5091654;28;19920;-71
2022/06/30 13:04:45;;;;;;;;;;;;;;;;;;5086385;28;20011;-73
2022/06/30 13:07:11;;;;;;;;;;;;;;;;;;5090315;28;20007;-70
2022/06/30 13:09:40;;;;;;;;;;;;;;;;;;5083172;28;19925;-72
2022/06/30 13:12:06;;;;;;;;;;;;;;;;;;5082716;28;19927;-73
2022/06/30 13:14:32;;;;;;;;;;;;;;;;;;5087390;28;20462;-72
2022/06/30 13:17:00;;;;;;;;;;;;;;;;;;5083697;28;19943;-67
2022/06/30 13:19:26;;;;;;;;;;;;;;;;;;5088119;28;19928;-70
2022/06/30 13:21:52;;;;;;;;;;;;;;;;;;5083730;28;19921;-70
2022/06/30 13:24:18;;;;;;;;;;;;;;;;;;5083236;28;19920;-70
2022/06/30 13:26:43;;;;;;;;;;;;;;;;;;5083847;28;19948;-69
2022/06/30 13:29:10;;;;;;;;;;;;;;;;;;5089066;28;19925;-71
2022/06/30 13:31:36;;;;;;;;;;;;;;;;;;5084773;28;19924;-71
2022/06/30 13:34:06;;;;;;;;;;;;;;;;;;5082943;28;19931;-69
2022/06/30 13:36:31;;;;;;;;;;;;;;;;;;5085283;28;19920;-71
2022/06/30 13:38:58;;;;;;;;;;;;;;;;;;5083723;28;19973;-70
2022/06/30 13:41:23;;;;;;;;;;;;;;;;;;5080410;28;19970;-70
2022/06/30 13:43:49;;;;;;;;;;;;;;;;;;5085387;28;19967;-68
2022/06/30 13:46:15;;;;;;;;;;;;;;;;;;5084397;28;19920;-70
2022/06/30 13:48:41;;;;;;;;;;;;;;;;;;5092929;28;19931;-70
2022/06/30 13:51:07;;;;;;;;;;;;;;;;;;5069309;28;20301;-67
2022/06/30 13:53:33;;;;;;;;;;;;;;;;;;5082697;28;20088;-68
2022/06/30 13:55:59;;;;;;;;;;;;;;;;;;5087373;28;19928;-67
2022/06/30 13:58:25;;;;;;;;;;;;;;;;;;5083313;28;19931;-67
2022/06/30 14:00:51;;;;;;;;;;;;;;;;;;5084490;28;19920;-69
2022/06/30 14:03:17;;;;;;;;;;;;;;;;;;5084100;28;19931;-67
2022/06/30 14:05:43;;;;;;;;;;;;;;;;;;5084229;28;20366;-66
2022/06/30 14:08:10;;;;;;;;;;;;;;;;;;5085090;28;19924;-67
2022/06/30 14:10:36;;;;;;;;;;;;;;;;;;5083714;28;19924;-72
2022/06/30 14:13:02;;;;;;;;;;;;;;;;;;5087589;28;19930;-68
2022/06/30 14:15:28;;;;;;;;;;;;;;;;;;5084724;28;20359;-68
2022/06/30 14:17:54;;;;;;;;;;;;;;;;;;5083104;28;19924;-68
2022/06/30 14:20:20;;;;;;;;;;;;;;;;;;5083886;28;20412;-67
2022/06/30 14:22:46;;;;;;;;;;;;;;;;;;5088237;28;19920;-68
2022/06/30 14:25:12;;;;;;;;;;;;;;;;;;5090302;28;19931;-67
2022/06/30 14:27:38;;;;;;;;;;;;;;;;;;5091371;28;19927;-66
2022/06/30 14:30:04;;;;;;;;;;;;;;;;;;5091237;28;19927;-67
2022/06/30 14:32:31;;;;;;;;;;;;;;;;;;5090649;28;19981;-67
2022/06/30 14:34:57;;;;;;;;;;;;;;;;;;5089819;28;19921;-67
2022/06/30 14:37:24;;;;;;;;;;;;;;;;;;5090691;28;20275;-68
2022/06/30 14:39:50;;;;;;;;;;;;;;;;;;5089269;28;20295;-67
2022/06/30 14:45:00;;;;;;;;;;;;;;;;;;5103304;28;20633;-70
2022/06/30 14:47:26;;;;;;;;;;;;;;;;;;5104950;28;19920;-68
2022/06/30 14:49:52;;;;;;;;;;;;;;;;;;5092582;28;19927;-68
2022/06/30 14:52:18;;;;;;;;;;;;;;;;;;5090458;28;19983;-67
2022/06/30 14:54:44;;;;;;;;;;;;;;;;;;5093778;28;19988;-68
2022/06/30 14:57:10;;;;;;;;;;;;;;;;;;5101294;28;20064;-68
2022/06/30 14:59:36;;;;;;;;;;;;;;;;;;5095995;28;19947;-67
2022/06/30 15:02:02;;;;;;;;;;;;;;;;;;5094896;28;19924;-67
2022/06/30 15:04:28;;;;;;;;;;;;;;;;;;5096041;28;20553;-67
2022/06/30 15:06:56;;;;;;;;;;;;;;;;;;5095350;28;20053;-67
2022/06/30 15:09:25;;;;;;;;;;;;;;;;;;5095079;28;19923;-67
2022/06/30 15:11:52;;;;;;;;;;;;;;;;;;5095746;28;19927;-67
2022/06/30 15:14:17;;;;;;;;;;;;;;;;;;5095859;28;19927;-68
2022/06/30 15:16:43;;;;;;;;;;;;;;;;;;5094539;28;19920;-67
2022/06/30 15:19:09;;;;;;;;;;;;;;;;;;5095366;28;19927;-67
2022/06/30 15:24:20;;;;;;;;;;;;;;;;;;5110165;28;20303;-67
2022/06/30 15:26:46;;;;;;;;;;;;;;;;;;5091190;28;20019;-67
2022/06/30 15:29:12;;;;;;;;;;;;;;;;;;5086763;28;20054;-67
2022/06/30 15:31:38;;;;;;;;;;;;;;;;;;5094605;28;19999;-67
2022/06/30 15:34:04;;;;;;;;;;;;;;;;;;5095227;28;20319;-67
2022/06/30 15:36:30;;;;;;;;;;;;;;;;;;5095261;28;19924;-67
2022/06/30 15:38:56;;;;;;;;;;;;;;;;;;5094074;28;19924;-67
2022/06/30 15:41:22;;;;;;;;;;;;;;;;;;5093731;28;20007;-67
2022/06/30 15:43:48;;;;;;;;;;;;;;;;;;5094851;28;20011;-67
2022/06/30 15:46:14;;;;;;;;;;;;;;;;;;5094713;28;19920;-67
2022/06/30 15:48:40;;;;;;;;;;;;;;;;;;5094282;28;19924;-67
2022/06/30 15:51:06;;;;;;;;;;;;;;;;;;5094882;28;19920;-67
2022/06/30 15:53:32;;;;;;;;;;;;;;;;;;5094019;28;19946;-67
2022/06/30 15:55:58;;;;;;;;;;;;;;;;;;5094629;28;19920;-67
2022/06/30 15:58:24;;;;;;;;;;;;;;;;;;5094625;28;19920;-67
2022/06/30 16:00:49;;;;;;;;;;;;;;;;;;5094064;28;19947;-67
2022/06/30 16:03:15;;;;;;;;;;;;;;;;;;5094762;28;19975;-67
2022/06/30 16:05:41;;;;;;;;;;;;;;;;;;5093907;28;19967;-67
2022/06/30 16:08:07;;;;;;;;;;;;;;;;;;5093857;28;19928;-67
2022/06/30 16:10:33;;;;;;;;;;;;;;;;;;5094044;28;19920;-67
2022/06/30 16:12:59;;;;;;;;;;;;;;;;;;5094461;28;20393;-67
2022/06/30 16:15:25;;;;;;;;;;;;;;;;;;5093952;28;19959;-67
2022/06/30 16:17:53;;;;;;;;;;;;;;;;;;5092873;28;19923;-67
2022/06/30 16:20:18;;;;;;;;;;;;;;;;;;5094246;28;19924;-66
2022/06/30 16:22:45;;;;;;;;;;;;;;;;;;5093898;28;19928;-67
2022/06/30 16:25:11;;;;;;;;;;;;;;;;;;5092767;28;19920;-67
2022/06/30 16:27:36;;;;;;;;;;;;;;;;;;5094450;28;19924;-67
2022/06/30 16:30:02;;;;;;;;;;;;;;;;;;5093984;28;20009;-67
2022/06/30 16:32:29;;;;;;;;;;;;;;;;;;5094656;28;19974;-67
2022/06/30 16:34:55;;;;;;;;;;;;;;;;;;5094561;28;19920;-67
2022/06/30 16:37:20;;;;;;;;;;;;;;;;;;5092411;28;19920;-67
2022/06/30 16:39:46;;;;;;;;;;;;;;;;;;5094422;28;20016;-67
2022/06/30 16:42:12;;;;;;;;;;;;;;;;;;5094217;28;19920;-67
2022/06/30 16:44:38;;;;;;;;;;;;;;;;;;5093377;28;19977;-67
2022/06/30 16:47:04;;;;;;;;;;;;;;;;;;5094281;28;20082;-67
2022/06/30 16:49:30;;;;;;;;;;;;;;;;;;5093883;28;19920;-67
2022/06/30 16:51:56;;;;;;;;;;;;;;;;;;5093854;28;20002;-67
2022/06/30 16:54:22;;;;;;;;;;;;;;;;;;5093625;28;19924;-67
2022/06/30 16:56:48;;;;;;;;;;;;;;;;;;5094098;28;19946;-67
2022/06/30 16:59:14;;;;;;;;;;;;;;;;;;5094015;28;20390;-67
2022/06/30 17:01:40;;;;;;;;;;;;;;;;;;5093069;28;20034;-67
2022/06/30 17:04:06;;;;;;;;;;;;;;;;;;5093942;28;19943;-67